createdAt,value
2022-11-24T00:01:19.855Z,97.54
2022-11-24T00:04:06.408Z,97.82
2022-11-24T00:06:36.035Z,97.58
2022-11-24T00:09:04.779Z,98.30
2022-11-24T00:11:34.587Z,98.38
2022-11-24T00:14:02.819Z,98.87
2022-11-24T00:16:33.348Z,97.97
2022-11-24T00:19:02.410Z,98.01
2022-11-24T00:21:31.570Z,98.80
2022-11-24T00:23:59.286Z,99.32
2022-11-24T00:26:32.256Z,98.57
2022-11-24T00:29:02.556Z,99.57
2022-11-24T00:31:40.133Z,99.46
2022-11-24T00:34:11.515Z,99.22
2022-11-24T00:36:39.786Z,99.50
2022-11-24T00:39:12.589Z,99.46
2022-11-24T00:41:40.296Z,99.28
2022-11-24T00:44:07.961Z,98.67
2022-11-24T00:46:35.660Z,98.70
2022-11-24T00:49:03.711Z,98.26
2022-11-24T00:51:31.458Z,97.25
2022-11-24T00:53:59.931Z,97.46
2022-11-24T00:56:29.731Z,98.48
2022-11-24T00:58:57.698Z,97.86
2022-11-24T01:01:27.827Z,97.23
2022-11-24T01:03:55.875Z,97.97
2022-11-24T01:06:26.059Z,98.26
2022-11-24T01:08:53.892Z,97.45
2022-11-24T01:11:27.457Z,97.92
2022-11-24T01:14:00.508Z,98.76
2022-11-24T01:16:34.430Z,99.24
2022-11-24T01:19:03.895Z,98.78
2022-11-24T01:21:31.432Z,98.02
2022-11-24T01:23:58.796Z,97.65
2022-11-24T01:26:26.537Z,98.33
2022-11-24T01:28:56.063Z,98.12
2022-11-24T01:31:24.195Z,99.39
2022-11-24T01:33:51.816Z,98.79
2022-11-24T01:36:19.681Z,97.94
2022-11-24T01:38:47.064Z,97.92
2022-11-24T01:41:17.991Z,96.57
2022-11-24T01:43:46.140Z,96.95
2022-11-24T01:46:35.139Z,97.99
2022-11-24T01:49:08.749Z,97.92
2022-11-24T01:51:40.026Z,97.41
2022-11-24T01:54:11.406Z,98.26
2022-11-24T01:56:41.949Z,99.85
2022-11-24T01:59:13.480Z,98.32
2022-11-24T02:01:40.859Z,98.80
2022-11-24T02:04:14.439Z,99.17
2022-11-24T02:06:45.784Z,98.61
2022-11-24T02:09:27.750Z,98.83
2022-11-24T02:11:56.388Z,99.29
2022-11-24T02:14:25.068Z,99.25
2022-11-24T02:16:53.296Z,98.54
2022-11-24T02:19:28.310Z,98.16
2022-11-24T02:21:55.784Z,97.75
2022-11-24T02:24:45.552Z,97.61
2022-11-24T02:27:13.206Z,96.43
2022-11-24T02:29:41.589Z,97.22
2022-11-24T02:32:11.592Z,97.70
2022-11-24T02:34:39.129Z,97.44
2022-11-24T02:37:06.603Z,97.83
2022-11-24T02:39:34.067Z,97.19
2022-11-24T02:42:08.467Z,96.71
2022-11-24T02:44:51.033Z,96.02
2022-11-24T02:47:18.779Z,95.17
2022-11-24T02:49:46.261Z,94.48
2022-11-24T02:52:14.510Z,95.00
2022-11-24T02:54:41.907Z,94.66
2022-11-24T02:57:09.850Z,95.84
2022-11-24T02:59:37.407Z,95.56
2022-11-24T03:02:04.892Z,95.12
2022-11-24T03:04:32.711Z,96.17
2022-11-24T03:07:00.428Z,96.01
2022-11-24T03:09:28.739Z,96.12
2022-11-24T03:11:56.173Z,96.23
2022-11-24T03:14:23.522Z,95.61
2022-11-24T03:16:50.884Z,96.35
2022-11-24T03:19:18.222Z,95.85
2022-11-24T03:21:45.832Z,96.47
2022-11-24T03:24:13.336Z,95.97
2022-11-24T03:26:42.054Z,95.70
2022-11-24T03:29:09.483Z,94.95
2022-11-24T03:31:36.936Z,94.92
2022-11-24T03:34:04.479Z,95.47
2022-11-24T03:36:31.924Z,95.19
2022-11-24T03:38:59.302Z,96.41
2022-11-24T03:41:26.631Z,96.41
2022-11-24T03:43:54.015Z,97.17
2022-11-24T03:46:21.377Z,97.11
2022-11-24T03:48:48.715Z,98.38
2022-11-24T03:51:16.064Z,96.97
2022-11-24T03:53:43.540Z,96.91
2022-11-24T03:56:11.247Z,97.15
2022-11-24T03:58:38.844Z,97.99
2022-11-24T04:01:06.221Z,98.63
2022-11-24T04:03:33.704Z,97.70
2022-11-24T04:06:01.090Z,97.79
2022-11-24T04:08:28.440Z,97.99
2022-11-24T04:10:56.048Z,98.28
2022-11-24T04:13:25.854Z,97.68
2022-11-24T04:15:53.712Z,97.88
2022-11-24T04:18:21.743Z,97.45
2022-11-24T04:20:50.651Z,96.47
2022-11-24T04:23:18.996Z,96.39
2022-11-24T04:25:46.680Z,96.48
2022-11-24T04:28:14.282Z,96.80
2022-11-24T04:30:44.814Z,96.85
2022-11-24T04:33:13.252Z,96.76
2022-11-24T04:35:40.945Z,97.48
2022-11-24T04:38:08.732Z,97.23
2022-11-24T04:40:36.945Z,97.80
2022-11-24T04:43:04.313Z,97.77
2022-11-24T04:45:31.816Z,97.04
2022-11-24T04:47:59.200Z,97.41
2022-11-24T04:50:26.837Z,96.71
2022-11-24T04:52:54.567Z,97.30
2022-11-24T04:55:22.096Z,97.61
2022-11-24T04:57:49.748Z,97.41
2022-11-24T05:00:17.915Z,98.18
2022-11-24T05:02:45.382Z,98.41
2022-11-24T05:05:12.777Z,98.29
2022-11-24T05:07:40.256Z,98.12
2022-11-24T05:10:26.578Z,97.98
2022-11-24T05:12:56.389Z,98.04
2022-11-24T05:15:24.023Z,98.89
2022-11-24T05:17:52.108Z,98.58
2022-11-24T05:20:20.065Z,97.83
2022-11-24T05:22:47.508Z,97.88
2022-11-24T05:25:15.704Z,98.56
2022-11-24T05:27:43.241Z,97.80
2022-11-24T05:30:11.841Z,97.60
2022-11-24T05:32:39.284Z,97.29
2022-11-24T05:35:09.667Z,97.60
2022-11-24T05:37:38.159Z,97.76
2022-11-24T05:40:06.950Z,97.22
2022-11-24T05:42:47.041Z,96.57
2022-11-24T05:45:20.386Z,97.61
2022-11-24T05:47:49.634Z,97.28
2022-11-24T05:50:19.319Z,97.40
2022-11-24T05:52:47.132Z,96.31
2022-11-24T05:55:15.312Z,93.89
2022-11-24T05:57:42.899Z,95.77
2022-11-24T06:00:11.235Z,96.97
2022-11-24T06:02:41.409Z,97.08
2022-11-24T06:05:09.148Z,98.10
2022-11-24T06:07:36.627Z,97.94
2022-11-24T06:10:04.672Z,97.85
2022-11-24T06:12:32.168Z,98.06
2022-11-24T06:14:59.540Z,97.94
2022-11-24T06:17:27.079Z,97.83
2022-11-24T06:19:54.620Z,98.36
2022-11-24T06:22:22.255Z,98.80
2022-11-24T06:24:50.772Z,98.13
2022-11-24T06:27:19.298Z,97.57
2022-11-24T06:29:47.570Z,98.04
2022-11-24T06:32:15.261Z,97.61
2022-11-24T06:34:43.420Z,97.76
2022-11-24T06:37:10.940Z,96.78
2022-11-24T06:39:38.402Z,96.69
2022-11-24T06:42:05.919Z,96.83
2022-11-24T06:44:33.590Z,96.64
2022-11-24T06:47:01.779Z,96.96
2022-11-24T06:49:29.370Z,97.28
2022-11-24T06:51:56.867Z,98.10
2022-11-24T06:54:25.035Z,98.37
2022-11-24T06:56:59.651Z,98.87
2022-11-24T06:59:27.768Z,99.01
2022-11-24T07:01:55.189Z,99.07
2022-11-24T07:04:22.603Z,99.01
2022-11-24T07:06:49.977Z,98.24
2022-11-24T07:09:17.628Z,98.83
2022-11-24T07:11:45.099Z,97.91
2022-11-24T07:14:13.076Z,98.02
2022-11-24T07:16:40.726Z,98.08
2022-11-24T07:19:10.280Z,98.94
2022-11-24T07:21:37.717Z,98.08
2022-11-24T07:24:05.606Z,98.30
2022-11-24T07:26:37.270Z,97.56
2022-11-24T07:29:05.467Z,97.42
2022-11-24T07:31:33.120Z,98.52
2022-11-24T07:34:00.704Z,97.87
2022-11-24T07:36:28.286Z,97.65
2022-11-24T07:38:55.678Z,97.30
2022-11-24T07:41:23.159Z,97.24
2022-11-24T07:43:51.695Z,96.89
2022-11-24T07:46:20.252Z,96.12
2022-11-24T07:48:47.807Z,96.13
2022-11-24T07:51:15.988Z,96.86
2022-11-24T07:53:43.644Z,96.83
2022-11-24T07:56:11.322Z,96.63
2022-11-24T07:58:38.694Z,96.28
2022-11-24T08:01:14.288Z,96.04
2022-11-24T08:03:43.324Z,96.47
2022-11-24T08:06:35.374Z,96.78
2022-11-24T08:09:00.458Z,97.31
2022-11-24T08:11:27.897Z,97.53
2022-11-24T08:13:55.262Z,97.11
2022-11-24T08:16:23.135Z,97.43
2022-11-24T08:18:52.716Z,97.66
2022-11-24T08:21:20.961Z,97.88
2022-11-24T08:23:48.380Z,96.90
2022-11-24T08:26:19.309Z,95.45
2022-11-24T08:28:47.465Z,94.54
2022-11-24T08:31:18.914Z,93.93
2022-11-24T08:33:46.718Z,93.90
2022-11-24T08:36:16.593Z,92.80
2022-11-24T08:38:44.868Z,92.81
2022-11-24T08:41:15.067Z,92.59
2022-11-24T08:43:43.546Z,92.38
2022-11-24T08:46:13.652Z,92.00
2022-11-24T08:48:41.694Z,92.13
2022-11-24T08:51:11.859Z,92.06
2022-11-24T08:53:40.464Z,91.43
2022-11-24T08:56:09.491Z,91.02
2022-11-24T08:58:37.713Z,91.10
2022-11-24T09:01:06.207Z,90.89
2022-11-24T09:03:34.573Z,91.59
2022-11-24T09:06:02.443Z,90.97
2022-11-24T09:08:31.414Z,91.36
2022-11-24T09:11:07.781Z,90.51
2022-11-24T09:13:35.890Z,90.78
2022-11-24T09:16:11.788Z,91.16
2022-11-24T09:18:39.247Z,91.62
2022-11-24T09:21:25.116Z,91.28
2022-11-24T09:23:54.068Z,90.50
2022-11-24T09:26:24.571Z,90.87
2022-11-24T09:28:56.424Z,90.60
2022-11-24T09:31:26.418Z,90.43
2022-11-24T09:33:54.575Z,89.81
2022-11-24T09:36:23.219Z,88.48
2022-11-24T09:38:51.255Z,88.70
2022-11-24T09:41:19.019Z,88.14
2022-11-24T09:44:15.071Z,88.16
2022-11-24T09:46:42.584Z,87.20
2022-11-24T09:49:17.711Z,87.19
2022-11-24T09:51:49.480Z,86.11
2022-11-24T09:54:20.886Z,85.82
2022-11-24T09:56:51.275Z,85.34
2022-11-24T09:59:21.435Z,84.72
2022-11-24T10:01:51.016Z,85.30
2022-11-24T10:04:26.980Z,84.04
2022-11-24T10:06:54.382Z,83.74
2022-11-24T10:09:33.148Z,83.65
2022-11-24T10:12:22.431Z,83.42
2022-11-24T10:15:18.843Z,83.28
2022-11-24T10:17:57.929Z,84.18
2022-11-24T10:20:48.551Z,83.82
2022-11-24T10:23:21.805Z,83.84
2022-11-24T10:25:57.578Z,83.41
2022-11-24T10:28:47.212Z,82.47
2022-11-24T10:31:32.487Z,82.68
2022-11-24T10:34:25.172Z,82.59
2022-11-24T10:37:06.487Z,80.48
2022-11-24T10:40:00.088Z,80.02
2022-11-24T10:42:31.477Z,80.66
2022-11-24T10:45:22.893Z,81.13
2022-11-24T10:47:50.710Z,81.47
2022-11-24T10:50:28.451Z,82.51
2022-11-24T10:52:56.450Z,82.46
2022-11-24T10:55:23.867Z,81.82
2022-11-24T10:57:51.222Z,81.41
2022-11-24T11:00:26.218Z,81.85
2022-11-24T11:03:16.982Z,82.66
2022-11-24T11:06:37.043Z,81.97
2022-11-24T11:09:08.736Z,78.63
2022-11-24T11:11:43.001Z,77.39
2022-11-24T11:14:12.968Z,76.50
2022-11-24T11:16:53.770Z,77.58
2022-11-24T11:19:48.966Z,79.09
2022-11-24T11:22:31.716Z,79.21
2022-11-24T11:25:20.652Z,76.88
2022-11-24T11:27:48.877Z,75.63
2022-11-24T11:36:11.339Z,78.15
2022-11-24T11:38:40.433Z,78.88
2022-11-24T11:41:20.054Z,78.54
2022-11-24T11:43:54.047Z,78.34
2022-11-24T11:46:21.776Z,78.77
2022-11-24T11:48:49.295Z,78.68
2022-11-24T11:51:23.882Z,78.71
2022-11-24T11:53:57.565Z,78.91
2022-11-24T11:56:40.398Z,78.40
2022-11-24T11:59:26.052Z,78.60
2022-11-24T12:01:59.046Z,78.75
2022-11-24T12:04:52.633Z,78.16
2022-11-24T12:07:52.239Z,76.97
2022-11-24T12:10:39.266Z,76.78
2022-11-24T12:13:37.704Z,77.65
2022-11-24T12:16:33.951Z,76.87
2022-11-24T12:19:28.719Z,76.97
2022-11-24T12:22:10.900Z,77.21
2022-11-24T12:24:41.504Z,78.24
2022-11-24T12:27:26.424Z,78.58
2022-11-24T12:30:05.409Z,78.71
2022-11-24T12:32:39.012Z,78.80
2022-11-24T12:35:06.354Z,79.12
2022-11-24T12:37:36.542Z,79.40
2022-11-24T12:40:17.469Z,78.05
2022-11-24T12:43:03.795Z,78.50
2022-11-24T12:46:01.117Z,78.57
2022-11-24T12:48:42.436Z,79.83
2022-11-24T12:51:22.806Z,79.60
2022-11-24T12:53:53.094Z,79.34
2022-11-24T12:57:07.029Z,79.14
2022-11-24T12:59:48.272Z,79.43
2022-11-24T13:02:47.353Z,79.13
2022-11-24T13:05:20.763Z,78.26
2022-11-24T13:07:59.777Z,78.52
2022-11-24T13:10:54.623Z,77.86
2022-11-24T13:13:26.388Z,78.14
2022-11-24T13:16:28.475Z,78.51
2022-11-24T13:18:44.247Z,77.32
2022-11-24T13:21:51.024Z,77.08
2022-11-24T13:24:19.547Z,75.48
2022-11-24T13:26:50.455Z,75.17
2022-11-24T13:29:31.816Z,75.24
2022-11-24T13:32:05.009Z,75.50
2022-11-24T13:34:42.784Z,73.84
2022-11-24T13:37:31.747Z,73.53
2022-11-24T13:40:23.284Z,73.53
2022-11-24T13:43:02.121Z,73.45
2022-11-24T13:45:49.772Z,73.46
2022-11-24T13:48:20.839Z,74.27
2022-11-24T13:50:55.050Z,74.19
2022-11-24T13:53:28.395Z,74.09
2022-11-24T13:56:14.187Z,72.57
2022-11-24T13:59:14.230Z,73.64
2022-11-24T14:01:43.802Z,73.27
2022-11-24T14:04:36.479Z,73.26
2022-11-24T14:07:09.024Z,73.09
2022-11-24T14:09:50.548Z,73.28
2022-11-24T14:12:24.516Z,74.05
2022-11-24T14:14:55.732Z,75.82
2022-11-24T14:17:28.553Z,77.09
2022-11-24T14:19:58.067Z,77.79
2022-11-24T14:22:34.432Z,78.48
2022-11-24T14:25:03.599Z,79.10
2022-11-24T14:27:38.855Z,78.97
2022-11-24T14:30:15.584Z,79.12
2022-11-24T14:33:03.852Z,79.33
2022-11-24T14:35:34.388Z,79.92
2022-11-24T14:38:05.602Z,80.31
2022-11-24T14:40:43.661Z,80.68
2022-11-24T14:43:30.033Z,80.70
2022-11-24T14:46:12.211Z,80.54
2022-11-24T14:48:48.040Z,81.19
2022-11-24T14:51:24.044Z,81.53
2022-11-24T14:53:55.498Z,81.83
2022-11-24T14:56:28.849Z,82.47
2022-11-24T14:58:58.026Z,82.27
2022-11-24T15:01:28.624Z,82.87
2022-11-24T15:04:32.333Z,82.79
2022-11-24T15:07:19.212Z,83.17
2022-11-24T15:09:58.063Z,83.89
2022-11-24T15:12:42.026Z,84.75
2022-11-24T15:15:15.667Z,85.03
2022-11-24T15:18:03.412Z,85.50
2022-11-24T15:20:38.301Z,85.91
2022-11-24T15:23:20.996Z,86.42
2022-11-24T15:25:58.534Z,86.99
2022-11-24T15:28:26.189Z,87.07
2022-11-24T15:30:55.507Z,87.15
2022-11-24T15:33:23.808Z,87.38
2022-11-24T15:35:51.348Z,87.66
2022-11-24T15:38:19.327Z,87.96
2022-11-24T15:40:48.257Z,88.61
2022-11-24T15:43:33.808Z,89.19
2022-11-24T15:46:02.647Z,89.49
2022-11-24T15:48:30.678Z,89.43
2022-11-24T15:50:59.693Z,89.63
2022-11-24T15:53:38.011Z,89.88
2022-11-24T15:56:15.094Z,89.89
2022-11-24T15:58:42.527Z,90.91
2022-11-24T16:01:10.016Z,91.31
2022-11-24T16:03:52.707Z,91.32
2022-11-24T16:06:24.741Z,91.95
2022-11-24T16:08:53.903Z,92.13
2022-11-24T16:11:22.324Z,91.82
2022-11-24T16:13:53.325Z,92.48
2022-11-24T16:16:23.245Z,92.65
2022-11-24T16:18:51.235Z,92.85
2022-11-24T16:21:18.758Z,92.97
2022-11-24T16:23:46.651Z,93.91
2022-11-24T16:26:14.192Z,93.58
2022-11-24T16:28:42.125Z,94.03
2022-11-24T16:31:09.668Z,94.04
2022-11-24T16:33:40.686Z,94.22
2022-11-24T16:36:08.675Z,93.42
2022-11-24T16:38:36.155Z,93.29
2022-11-24T16:41:03.763Z,93.71
2022-11-24T16:43:31.183Z,93.87
2022-11-24T16:46:17.291Z,94.50
2022-11-24T16:48:50.611Z,94.73
2022-11-24T16:51:20.166Z,94.40
2022-11-24T16:53:48.056Z,94.50
2022-11-24T16:56:16.557Z,94.78
2022-11-24T16:58:44.249Z,95.01
2022-11-24T17:01:13.810Z,95.24
2022-11-24T17:03:41.700Z,96.01
2022-11-24T17:06:11.999Z,96.74
2022-11-24T17:08:41.006Z,97.02
2022-11-24T17:11:16.513Z,97.29
2022-11-24T17:13:45.868Z,97.51
2022-11-24T17:16:15.471Z,98.17
2022-11-24T17:18:43.694Z,97.72
2022-11-24T17:21:16.958Z,97.40
2022-11-24T17:23:45.104Z,97.94
2022-11-24T17:26:17.073Z,97.77
2022-11-24T17:28:44.611Z,97.82
2022-11-24T17:31:22.724Z,97.58
2022-11-24T17:33:53.011Z,97.74
2022-11-24T17:36:20.649Z,97.88
2022-11-24T17:38:49.676Z,98.36
2022-11-24T17:41:18.467Z,98.87
2022-11-24T17:43:53.376Z,98.82
2022-11-24T17:46:20.766Z,99.17
2022-11-24T17:48:48.290Z,99.41
2022-11-24T17:51:18.791Z,99.91
2022-11-24T17:53:49.514Z,99.64
2022-11-24T17:56:20.033Z,100.00
2022-11-24T17:58:47.495Z,100.00
2022-11-24T18:01:15.010Z,100.00
2022-11-24T18:03:42.502Z,99.92
2022-11-24T18:06:12.092Z,99.90
2022-11-24T18:08:45.176Z,100.00
2022-11-24T18:11:16.319Z,100.00
2022-11-24T18:14:00.926Z,99.94
2022-11-24T18:16:30.330Z,99.80
2022-11-24T18:19:08.507Z,99.35
2022-11-24T18:21:37.905Z,99.00
2022-11-24T18:24:07.914Z,98.96
2022-11-24T18:26:35.417Z,99.34
2022-11-24T18:29:03.035Z,98.87
2022-11-24T18:31:31.297Z,98.56
2022-11-24T18:33:59.472Z,98.91
2022-11-24T18:36:30.612Z,99.04
2022-11-24T18:39:02.540Z,99.24
2022-11-24T18:41:29.976Z,98.60
2022-11-24T18:44:08.313Z,98.35
2022-11-24T18:46:37.441Z,98.69
2022-11-24T18:49:07.159Z,98.39
2022-11-24T18:51:35.608Z,98.56
2022-11-24T18:54:05.303Z,98.52
2022-11-24T18:56:33.199Z,98.49
2022-11-24T18:59:00.545Z,98.42
2022-11-24T19:01:29.507Z,98.29
2022-11-24T19:03:59.405Z,98.44
2022-11-24T19:06:32.469Z,98.85
2022-11-24T19:09:03.631Z,99.07
2022-11-24T19:11:34.017Z,99.12
2022-11-24T19:14:03.843Z,98.96
2022-11-24T19:16:31.751Z,99.01
2022-11-24T19:19:00.421Z,99.75
2022-11-24T19:21:31.563Z,100.00
2022-11-24T19:24:04.470Z,99.61
2022-11-24T19:26:36.455Z,99.14
2022-11-24T19:29:05.257Z,99.69
2022-11-24T19:31:33.585Z,99.43
2022-11-24T19:34:03.064Z,98.99
2022-11-24T19:36:30.974Z,99.23
2022-11-24T19:38:58.905Z,100.00
2022-11-24T19:41:29.229Z,100.00
2022-11-24T19:43:58.538Z,100.00
2022-11-24T19:46:28.031Z,99.82
2022-11-24T19:48:58.380Z,100.00
2022-11-24T19:51:28.198Z,100.00
2022-11-24T19:53:55.604Z,100.00
2022-11-24T19:56:25.137Z,100.00
2022-11-24T19:58:54.717Z,100.00
2022-11-24T20:01:25.499Z,100.00
2022-11-24T20:04:03.628Z,100.00
2022-11-24T20:06:34.161Z,100.00
2022-11-24T20:09:01.855Z,100.00
2022-11-24T20:11:30.084Z,100.00
2022-11-24T20:13:58.070Z,100.00
2022-11-24T20:16:30.571Z,100.00
2022-11-24T20:19:05.761Z,100.00
2022-11-24T20:21:34.667Z,99.48
2022-11-24T20:24:08.575Z,100.00
2022-11-24T20:26:39.008Z,99.30
2022-11-24T20:29:07.071Z,100.00
2022-11-24T20:31:37.769Z,100.00
2022-11-24T20:34:07.290Z,100.00
2022-11-24T20:36:36.612Z,100.00
2022-11-24T20:39:08.416Z,100.00
2022-11-24T20:41:38.977Z,100.00
2022-11-24T20:44:08.594Z,100.00
2022-11-24T20:46:38.520Z,100.00
2022-11-24T20:49:07.785Z,100.00
2022-11-24T20:51:37.839Z,100.00
2022-11-24T20:54:09.291Z,100.00
2022-11-24T20:56:39.898Z,100.00
2022-11-24T20:59:09.080Z,100.00
2022-11-24T21:01:42.650Z,100.00
2022-11-24T21:04:12.918Z,100.00
2022-11-24T21:06:40.820Z,100.00
2022-11-24T21:09:09.272Z,99.88
2022-11-24T21:11:38.334Z,100.00
2022-11-24T21:14:08.486Z,100.00
2022-11-24T21:16:38.249Z,97.46
2022-11-24T21:19:18.252Z,99.40
2022-11-24T21:21:47.654Z,99.34
2022-11-24T21:24:17.357Z,99.37
2022-11-24T21:26:48.091Z,99.27
2022-11-24T21:29:17.876Z,98.78
2022-11-24T21:31:45.335Z,98.82
2022-11-24T21:34:15.689Z,98.55
2022-11-24T21:36:45.134Z,98.80
2022-11-24T21:39:14.017Z,98.75
2022-11-24T21:41:42.171Z,98.58
2022-11-24T21:44:12.013Z,99.08
2022-11-24T21:46:45.081Z,98.56
2022-11-24T21:49:16.859Z,99.39
2022-11-24T21:51:44.280Z,98.83
2022-11-24T21:54:11.827Z,99.06
2022-11-24T21:56:39.203Z,98.79
2022-11-24T21:59:06.622Z,99.06
2022-11-24T22:01:34.220Z,99.44
2022-11-24T22:04:01.873Z,99.40
2022-11-24T22:06:29.367Z,99.33
2022-11-24T22:08:56.838Z,98.86
2022-11-24T22:11:25.489Z,99.42
2022-11-24T22:13:53.332Z,100.00
2022-11-24T22:16:23.463Z,99.72
2022-11-24T22:18:51.815Z,99.99
2022-11-24T22:21:24.323Z,99.34
2022-11-24T22:23:52.822Z,97.94
2022-11-24T22:26:22.421Z,97.77
2022-11-24T22:28:50.880Z,97.58
2022-11-24T22:31:19.886Z,98.41
2022-11-24T22:33:48.269Z,98.25
2022-11-24T22:36:17.436Z,97.70
2022-11-24T22:38:44.938Z,97.30
2022-11-24T22:41:17.805Z,97.44
2022-11-24T22:43:46.318Z,97.75
2022-11-24T22:46:18.631Z,98.22
2022-11-24T22:48:47.845Z,98.12
2022-11-24T22:51:20.668Z,97.52
2022-11-24T22:53:50.089Z,98.02
2022-11-24T22:56:18.462Z,97.84
2022-11-24T22:58:46.377Z,98.09
2022-11-24T23:01:19.580Z,99.26
2022-11-24T23:03:47.709Z,100.00
2022-11-24T23:06:17.769Z,100.00
2022-11-24T23:08:45.324Z,99.33
2022-11-24T23:11:15.442Z,99.25
2022-11-24T23:13:43.125Z,98.30
2022-11-24T23:16:15.963Z,99.58
2022-11-24T23:18:44.339Z,99.76
2022-11-24T23:21:18.737Z,99.76
2022-11-24T23:23:47.356Z,98.99
2022-11-24T23:26:18.157Z,99.04
2022-11-24T23:28:45.676Z,99.14
2022-11-24T23:31:16.293Z,100.00
2022-11-24T23:33:44.060Z,99.23
2022-11-24T23:36:16.510Z,100.00
2022-11-24T23:38:45.069Z,100.00
2022-11-24T23:41:15.877Z,100.00
2022-11-24T23:43:44.149Z,99.74
2022-11-24T23:46:14.956Z,100.00
2022-11-24T23:48:42.379Z,99.81
2022-11-24T23:51:17.578Z,99.16
2022-11-24T23:53:45.531Z,100.00
2022-11-24T23:56:15.564Z,100.00
2022-11-24T23:58:43.456Z,100.00
